TimeCDT,TemperatureF,Dew PointF,Humidity,Sea Level PressureIn,VisibilityMPH,Wind Direction,Wind SpeedMPH,Gust SpeedMPH,PrecipitationIn,Events,Conditions,WindDirDegrees,DateUTC
12:13 AM,62.6,46.4,55,29.84,10.0,South,17.3,24.2,N/A,,Clear,180,2013-10-09 05:13:00
12:33 AM,62.6,46.4,55,29.85,10.0,South,18.4,-,N/A,,Clear,180,2013-10-09 05:33:00
12:53 AM,62.6,46.4,55,29.85,10.0,South,17.3,21.9,N/A,,Clear,180,2013-10-09 05:53:00
1:14 AM,60.8,46.4,59,29.86,10.0,South,17.3,-,N/A,,Clear,180,2013-10-09 06:14:00
1:33 AM,60.8,46.4,59,29.86,10.0,South,15.0,-,N/A,,Clear,180,2013-10-09 06:33:00
1:53 AM,60.8,46.4,59,29.87,10.0,South,11.5,18.4,N/A,,Clear,180,2013-10-09 06:53:00
2:14 AM,59.0,46.4,63,29.88,10.0,South,10.4,-,N/A,,Clear,180,2013-10-09 07:14:00
2:33 AM,57.2,46.4,67,29.88,10.0,South,12.7,-,N/A,,Clear,180,2013-10-09 07:33:00
2:53 AM,57.2,46.4,67,29.88,10.0,South,9.2,16.1,N/A,,Clear,180,2013-10-09 07:53:00
3:13 AM,57.2,46.4,67,29.88,10.0,South,12.7,-,N/A,,Clear,180,2013-10-09 08:13:00
3:33 AM,57.2,46.4,67,29.89,10.0,South,11.5,-,N/A,,Clear,170,2013-10-09 08:33:00
3:54 AM,55.4,46.4,72,29.89,10.0,South,9.2,-,N/A,,Clear,180,2013-10-09 08:54:00
4:13 AM,55.4,46.4,72,29.90,10.0,South,8.1,-,N/A,,Clear,180,2013-10-09 09:13:00
4:33 AM,55.4,46.4,72,29.90,10.0,South,6.9,-,N/A,,Clear,180,2013-10-09 09:33:00
4:53 AM,53.6,46.4,77,29.90,10.0,South,4.6,-,N/A,,Clear,180,2013-10-09 09:53:00
5:13 AM,53.6,46.4,77,29.91,10.0,South,3.5,-,N/A,,Clear,180,2013-10-09 10:13:00
5:34 AM,51.8,46.4,82,29.91,10.0,South,6.9,-,N/A,,Clear,180,2013-10-09 10:34:00
5:53 AM,51.8,46.4,82,29.91,10.0,South,8.1,-,N/A,,Clear,170,2013-10-09 10:53:00
6:13 AM,51.8,46.4,82,29.92,10.0,South,8.1,-,N/A,,Clear,180,2013-10-09 11:13:00
6:33 AM,51.8,46.4,82,29.92,10.0,South,5.8,-,N/A,,Clear,180,2013-10-09 11:33:00
6:53 AM,51.8,46.4,82,29.92,10.0,South,6.9,-,N/A,,Clear,180,2013-10-09 11:53:00
7:14 AM,51.8,46.4,82,29.92,10.0,South,5.8,-,N/A,,Clear,180,2013-10-09 12:14:00
7:33 AM,51.8,46.4,82,29.93,10.0,South,4.6,-,N/A,,Clear,190,2013-10-09 12:33:00
7:53 AM,51.8,46.4,82,29.94,10.0,South,3.5,-,N/A,,Clear,170,2013-10-09 12:53:00
8:13 AM,51.8,46.4,82,29.94,10.0,South,4.6,-,N/A,,Clear,170,2013-10-09 13:13:00
8:33 AM,53.6,46.4,77,29.95,10.0,South,5.8,-,N/A,,Clear,180,2013-10-09 13:33:00
8:54 AM,55.4,48.2,77,29.95,10.0,South,8.1,-,N/A,,Clear,180,2013-10-09 13:54:00
9:13 AM,55.4,48.2,77,29.95,10.0,South,13.8,-,N/A,,Clear,180,2013-10-09 14:13:00
9:33 AM,57.2,48.2,72,29.96,10.0,South,10.4,-,N/A,,Clear,190,2013-10-09 14:33:00
9:54 AM,59.0,48.2,67,29.97,10.0,South,13.8,-,N/A,,Clear,190,2013-10-09 14:54:00
10:13 AM,60.8,48.2,63,29.97,10.0,South,10.4,-,N/A,,Clear,190,2013-10-09 15:13:00
10:33 AM,62.6,48.2,59,29.98,10.0,SSW,12.7,-,N/A,,Clear,200,2013-10-09 15:33:00
11:13 AM,64.4,48.2,56,29.99,10.0,South,10.4,-,N/A,,Clear,180,2013-10-09 16:13:00
11:34 AM,64.4,48.2,56,29.99,10.0,WSW,9.2,-,N/A,,Clear,240,2013-10-09 16:34:00
11:53 AM,66.2,48.2,52,29.99,10.0,SSW,6.9,-,N/A,,Clear,210,2013-10-09 16:53:00
12:13 PM,66.2,50.0,56,29.99,10.0,South,5.8,-,N/A,,Clear,180,2013-10-09 17:13:00
12:34 PM,66.2,50.0,56,29.99,10.0,South,4.6,-,N/A,,Clear,190,2013-10-09 17:34:00
12:53 PM,68.0,50.0,52,29.99,10.0,SW,4.6,-,N/A,,Clear,220,2013-10-09 17:53:00
1:13 PM,69.8,50.0,49,29.99,10.0,SSE,6.9,-,N/A,,Clear,150,2013-10-09 18:13:00
1:33 PM,69.8,50.0,49,29.99,10.0,SE,4.6,-,N/A,,Clear,140,2013-10-09 18:33:00
1:53 PM,69.8,48.2,46,29.99,10.0,SSE,6.9,-,N/A,,Clear,160,2013-10-09 18:53:00
2:13 PM,71.6,48.2,43,29.98,10.0,SSW,4.6,-,N/A,,Clear,200,2013-10-09 19:13:00
2:33 PM,69.8,50.0,49,29.98,10.0,SSE,5.8,-,N/A,,Clear,160,2013-10-09 19:33:00
2:54 PM,71.6,51.8,50,29.99,10.0,South,6.9,-,N/A,,Clear,170,2013-10-09 19:54:00
3:13 PM,71.6,50.0,46,29.99,10.0,SSE,9.2,-,N/A,,Clear,160,2013-10-09 20:13:00
3:33 PM,71.6,51.8,50,29.98,10.0,SSE,8.1,-,N/A,,Clear,160,2013-10-09 20:33:00
3:53 PM,71.6,51.8,50,29.98,10.0,East,3.5,-,N/A,,Clear,90,2013-10-09 20:53:00
4:13 PM,73.4,51.8,47,29.98,10.0,SSE,8.1,-,N/A,,Clear,150,2013-10-09 21:13:00
4:34 PM,71.6,51.8,50,29.97,10.0,SSE,5.8,-,N/A,,Clear,160,2013-10-09 21:34:00
4:53 PM,71.6,51.8,50,29.97,10.0,ESE,5.8,-,N/A,,Clear,110,2013-10-09 21:53:00
5:13 PM,71.6,51.8,50,29.97,10.0,East,4.6,-,N/A,,Clear,100,2013-10-09 22:13:00
5:34 PM,71.6,51.8,50,29.97,10.0,ESE,4.6,-,N/A,,Clear,110,2013-10-09 22:34:00
5:53 PM,69.8,51.8,53,29.97,10.0,East,4.6,-,N/A,,Clear,80,2013-10-09 22:53:00
6:13 PM,66.2,53.6,64,29.96,10.0,ENE,4.6,-,N/A,,Clear,70,2013-10-09 23:13:00
6:33 PM,64.4,51.8,64,29.97,10.0,ENE,4.6,-,N/A,,Clear,60,2013-10-09 23:33:00
6:53 PM,62.6,51.8,68,29.97,10.0,ENE,5.8,-,N/A,,Clear,60,2013-10-09 23:53:00
7:00 PM,62.6,51.8,68,29.97,10.0,ENE,5.8,-,N/A,,Clear,60,2013-10-10 00:00:00
7:33 PM,60.8,51.8,72,29.97,10.0,ENE,6.9,-,N/A,,Clear,70,2013-10-10 00:33:00
7:53 PM,60.8,51.8,72,29.97,10.0,ENE,5.8,-,N/A,,Clear,70,2013-10-10 00:53:00
8:13 PM,59.0,51.8,77,29.97,10.0,East,8.1,-,N/A,,Clear,80,2013-10-10 01:13:00
8:33 PM,59.0,51.8,77,29.97,10.0,East,5.8,-,N/A,,Clear,100,2013-10-10 01:33:00
8:54 PM,59.0,51.8,77,29.98,10.0,East,5.8,-,N/A,,Clear,100,2013-10-10 01:54:00
9:13 PM,59.0,51.8,77,29.98,10.0,ESE,8.1,-,N/A,,Clear,110,2013-10-10 02:13:00
9:33 PM,59.0,51.8,77,29.98,10.0,ESE,6.9,-,N/A,,Clear,110,2013-10-10 02:33:00
9:53 PM,57.2,50.0,77,29.99,10.0,ESE,6.9,-,N/A,,Clear,120,2013-10-10 02:53:00
10:13 PM,57.2,50.0,77,29.99,10.0,ESE,6.9,-,N/A,,Clear,120,2013-10-10 03:13:00
10:33 PM,57.2,48.2,72,29.99,10.0,SE,6.9,-,N/A,,Clear,130,2013-10-10 03:33:00
10:53 PM,57.2,48.2,72,29.99,10.0,SE,8.1,-,N/A,,Clear,130,2013-10-10 03:53:00
11:13 PM,55.4,48.2,77,29.99,10.0,SE,8.1,-,N/A,,Clear,140,2013-10-10 04:13:00
11:34 PM,55.4,48.2,77,29.99,10.0,SE,8.1,-,N/A,,Clear,130,2013-10-10 04:34:00
11:53 PM,57.2,48.2,72,29.99,10.0,SE,8.1,-,N/A,,Clear,130,2013-10-10 04:53:00